Time;durP1;ratioP1;P1;durP2;ratioP2;P2;SDS_P1;SDS_P2;PMS_P1;PMS_P2;Temp;Humidity;BMP_temperature;BMP_pressure;BME280_temperature;BME280_humidity;BME280_pressure;Samples;Min_cycle;Max_cycle;Signal;HPM_P1;HPM_P2
2023/06/28 00:02:20;;;;;;;9.13;2.00;;;13.00;99.90;;;;;;5032118;28;20233;-77
2023/06/28 00:04:48;;;;;;;5.33;1.93;;;13.00;99.90;;;;;;5032440;28;20318;-78
2023/06/28 00:07:16;;;;;;;3.53;2.00;;;13.00;99.90;;;;;;5042013;28;20240;-77
2023/06/28 00:09:43;;;;;;;4.57;2.10;;;12.90;99.90;;;;;;5039229;28;20223;-77
2023/06/28 00:12:10;;;;;;;6.53;2.30;;;13.00;99.90;;;;;;5038500;28;20223;-77
2023/06/28 00:14:36;;;;;;;3.17;1.97;;;12.90;99.90;;;;;;5024254;28;20219;-77
2023/06/28 00:17:04;;;;;;;8.57;1.90;;;12.90;99.90;;;;;;5043919;28;20229;-77
2023/06/28 00:19:30;;;;;;;9.63;2.20;;;12.90;99.90;;;;;;5017614;28;21032;-78
2023/06/28 00:21:58;;;;;;;4.60;2.00;;;12.90;99.90;;;;;;5038095;28;20258;-78
2023/06/28 00:24:27;;;;;;;5.50;2.60;;;12.80;99.90;;;;;;5019588;28;20258;-78
2023/06/28 00:26:53;;;;;;;8.73;2.10;;;12.80;99.90;;;;;;5013972;28;20241;-78
2023/06/28 00:29:20;;;;;;;6.37;2.03;;;12.80;99.90;;;;;;5020695;28;20230;-78
2023/06/28 00:31:47;;;;;;;5.57;2.10;;;12.80;99.90;;;;;;5019040;28;20224;-79
2023/06/28 00:34:14;;;;;;;8.10;2.43;;;12.80;99.90;;;;;;5036419;28;20318;-78
2023/06/28 00:36:40;;;;;;;5.43;1.90;;;12.70;99.90;;;;;;5016574;28;20224;-78
2023/06/28 00:39:08;;;;;;;4.53;2.30;;;12.70;99.90;;;;;;5032638;28;20221;-78
2023/06/28 00:41:35;;;;;;;6.17;2.10;;;12.70;99.90;;;;;;5018915;28;20233;-78
2023/06/28 00:44:02;;;;;;;6.67;2.23;;;12.70;99.90;;;;;;5031732;28;20224;-77
2023/06/28 00:46:29;;;;;;;5.83;2.07;;;12.70;99.90;;;;;;5016153;28;20236;-76
2023/06/28 00:48:56;;;;;;;6.43;2.30;;;12.60;99.90;;;;;;5033266;28;20242;-77
2023/06/28 00:51:23;;;;;;;7.27;2.37;;;12.60;99.90;;;;;;5034498;28;20232;-76
2023/06/28 00:53:50;;;;;;;6.13;2.37;;;12.60;99.90;;;;;;5014812;28;20217;-76
2023/06/28 00:56:19;;;;;;;7.10;2.23;;;12.60;99.90;;;;;;5016815;28;20246;-77
2023/06/28 00:58:46;;;;;;;6.23;2.50;;;12.50;99.90;;;;;;5032774;28;20770;-77
2023/06/28 01:01:13;;;;;;;5.00;1.83;;;12.60;99.90;;;;;;5038342;28;20902;-78
2023/06/28 01:03:40;;;;;;;5.53;2.47;;;12.50;99.90;;;;;;5023956;28;20820;-78
2023/06/28 01:06:08;;;;;;;3.07;1.97;;;12.50;99.90;;;;;;5023079;28;20279;-77
2023/06/28 01:08:35;;;;;;;7.50;2.10;;;12.50;99.90;;;;;;5018625;28;20409;-77
2023/06/28 01:11:03;;;;;;;7.53;2.30;;;12.40;99.90;;;;;;5018594;28;20214;-78
2023/06/28 01:13:31;;;;;;;6.10;2.33;;;12.40;99.90;;;;;;5040948;28;20746;-77
2023/06/28 01:15:58;;;;;;;5.40;1.90;;;12.40;99.90;;;;;;5021637;28;22697;-78
2023/06/28 01:18:25;;;;;;;6.23;2.40;;;12.40;99.90;;;;;;5021844;28;20217;-79
2023/06/28 01:20:54;;;;;;;5.37;1.97;;;12.30;99.90;;;;;;5021687;28;20309;-79
2023/06/28 01:23:26;;;;;;;7.63;2.20;;;12.30;99.90;;;;;;5031171;28;20308;-78
2023/06/28 01:25:53;;;;;;;5.47;2.30;;;12.30;99.90;;;;;;5015787;28;20313;-78
2023/06/28 01:28:20;;;;;;;5.90;2.30;;;12.20;99.90;;;;;;5020569;28;20664;-78
2023/06/28 01:30:48;;;;;;;5.37;2.20;;;12.20;99.90;;;;;;5018633;28;20595;-78
2023/06/28 01:33:15;;;;;;;6.53;2.33;;;12.20;99.90;;;;;;5014960;28;20585;-78
2023/06/28 01:35:42;;;;;;;4.27;1.93;;;12.20;99.90;;;;;;5033602;28;20228;-78
2023/06/28 01:38:10;;;;;;;6.23;2.30;;;12.20;99.90;;;;;;5031193;28;20324;-78
2023/06/28 01:40:41;;;;;;;4.70;2.00;;;12.20;99.90;;;;;;5036900;28;20807;-78
2023/06/28 01:43:08;;;;;;;5.33;2.37;;;12.10;99.90;;;;;;5019493;28;20239;-78
2023/06/28 01:45:35;;;;;;;5.17;2.13;;;12.10;99.90;;;;;;5034641;28;20236;-78
2023/06/28 01:48:02;;;;;;;4.67;2.03;;;12.10;99.90;;;;;;5020362;28;20254;-78
2023/06/28 01:50:29;;;;;;;5.57;2.23;;;12.10;99.90;;;;;;5039963;28;20473;-78
2023/06/28 01:53:01;;;;;;;6.40;2.40;;;12.10;99.90;;;;;;5023356;28;20219;-77
2023/06/28 01:55:28;;;;;;;6.73;2.10;;;12.10;99.90;;;;;;5027546;28;20789;-78
2023/06/28 01:57:56;;;;;;;4.03;1.93;;;12.10;99.90;;;;;;5042982;28;20642;-78
2023/06/28 02:00:23;;;;;;;6.33;2.20;;;12.00;99.90;;;;;;5020488;28;20223;-78
2023/06/28 02:02:52;;;;;;;5.73;2.17;;;12.00;99.90;;;;;;5046881;28;20653;-78
2023/06/28 02:05:19;;;;;;;8.67;2.07;;;12.00;99.90;;;;;;5024391;28;20578;-78
2023/06/28 02:07:46;;;;;;;8.53;2.63;;;11.90;99.90;;;;;;5021731;28;20237;-78
2023/06/28 02:10:13;;;;;;;4.63;2.17;;;11.90;99.90;;;;;;5027693;28;20219;-78
2023/06/28 02:12:40;;;;;;;5.00;2.27;;;11.90;99.90;;;;;;5026084;28;20295;-79
2023/06/28 02:15:09;;;;;;;6.43;2.00;;;11.90;99.90;;;;;;5027066;28;20318;-78
2023/06/28 02:17:38;;;;;;;8.60;2.40;;;11.90;99.90;;;;;;5020389;28;20283;-78
2023/06/28 02:20:08;;;;;;;6.23;2.50;;;11.80;99.90;;;;;;5018863;28;20239;-78
2023/06/28 02:22:35;;;;;;;4.33;2.20;;;11.80;99.90;;;;;;5040423;28;20239;-77
2023/06/28 02:25:02;;;;;;;6.20;2.27;;;11.80;99.90;;;;;;5038211;28;20310;-78
2023/06/28 02:27:29;;;;;;;4.77;2.23;;;11.80;99.90;;;;;;5028662;28;20235;-79
2023/06/28 02:29:57;;;;;;;5.73;2.30;;;11.80;99.90;;;;;;5020467;28;20226;-78
2023/06/28 02:32:30;;;;;;;7.03;2.50;;;11.80;99.90;;;;;;5037663;28;20250;-78
2023/06/28 02:34:57;;;;;;;5.83;2.33;;;11.80;99.90;;;;;;5041057;28;20223;-78
2023/06/28 02:37:24;;;;;;;5.37;2.33;;;11.70;99.90;;;;;;5015425;28;20219;-78
2023/06/28 02:39:51;;;;;;;4.77;2.07;;;11.70;99.90;;;;;;5015517;28;20226;-78
2023/06/28 02:42:18;;;;;;;6.63;2.57;;;11.70;99.90;;;;;;5014681;28;20224;-77
2023/06/28 02:44:45;;;;;;;4.60;2.23;;;11.70;99.90;;;;;;5021530;28;20594;-77
2023/06/28 02:47:13;;;;;;;5.20;2.37;;;11.80;99.90;;;;;;5021940;28;20224;-77
2023/06/28 02:49:42;;;;;;;5.67;2.70;;;11.70;99.90;;;;;;5017054;28;20228;-77
2023/06/28 02:52:09;;;;;;;4.70;2.43;;;11.70;99.90;;;;;;5014995;28;20234;-77
2023/06/28 02:54:36;;;;;;;7.57;2.80;;;11.70;99.90;;;;;;5017995;28;20277;-77
2023/06/28 02:57:08;;;;;;;7.33;2.80;;;11.80;99.90;;;;;;5015030;28;20224;-78
2023/06/28 02:59:52;;;;;;;5.87;3.03;;;11.80;99.90;;;;;;5014627;28;20231;-78
2023/06/28 03:02:19;;;;;;;9.43;3.23;;;11.80;99.90;;;;;;5020073;28;20224;-78
2023/06/28 03:04:47;;;;;;;8.23;3.00;;;11.90;99.90;;;;;;5013516;28;20912;-78
2023/06/28 03:07:15;;;;;;;9.00;3.23;;;11.90;99.90;;;;;;5019975;28;20250;-77
2023/06/28 03:09:42;;;;;;;9.03;3.30;;;12.00;99.90;;;;;;5014276;28;20229;-78
2023/06/28 03:12:10;;;;;;;8.27;3.40;;;12.10;99.90;;;;;;5033860;28;20227;-77
2023/06/28 03:14:37;;;;;;;10.50;3.10;;;12.20;99.90;;;;;;5054220;28;20227;-76
2023/06/28 03:17:05;;;;;;;8.93;3.00;;;12.20;99.90;;;;;;5017298;28;20225;-78
2023/06/28 03:19:32;;;;;;;9.43;3.13;;;12.30;99.90;;;;;;5023251;28;20745;-77
2023/06/28 03:22:01;;;;;;;8.73;3.20;;;12.30;99.90;;;;;;5033980;28;20878;-77
2023/06/28 03:24:28;;;;;;;5.30;3.40;;;12.40;99.90;;;;;;5018921;28;20297;-77
2023/06/28 03:26:56;;;;;;;5.07;2.83;;;12.40;99.90;;;;;;5017907;28;20228;-78
2023/06/28 03:29:23;;;;;;;9.97;3.43;;;12.40;99.90;;;;;;5016303;28;20300;-77
2023/06/28 03:31:50;;;;;;;7.43;3.07;;;12.50;99.90;;;;;;5016834;28;20223;-78
2023/06/28 03:34:17;;;;;;;7.00;2.80;;;12.50;99.90;;;;;;5018151;28;20222;-80
2023/06/28 03:36:46;;;;;;;7.23;3.30;;;12.50;99.90;;;;;;5021292;28;20233;-79
2023/06/28 03:39:14;;;;;;;11.53;3.47;;;12.60;99.90;;;;;;5033235;28;20224;-79
2023/06/28 03:41:42;;;;;;;5.77;2.87;;;12.60;99.90;;;;;;5015120;28;20240;-78
2023/06/28 03:44:09;;;;;;;7.70;3.03;;;12.60;99.90;;;;;;5015621;28;20744;-78
2023/06/28 03:46:36;;;;;;;7.17;3.13;;;12.60;99.90;;;;;;5030869;28;20283;-79
2023/06/28 03:49:04;;;;;;;7.90;3.60;;;12.70;99.90;;;;;;5015532;28;20225;-79
2023/06/28 03:51:34;;;;;;;10.67;3.40;;;12.70;99.90;;;;;;5018893;28;20243;-77
2023/06/28 03:54:00;;;;;;;11.17;3.37;;;12.70;99.90;;;;;;5056188;28;20314;-78
2023/06/28 03:56:29;;;;;;;7.73;3.30;;;12.70;99.90;;;;;;5021184;28;20234;-78
2023/06/28 03:58:56;;;;;;;10.27;3.60;;;12.80;99.90;;;;;;5034462;28;20936;-78
2023/06/28 04:01:23;;;;;;;5.73;2.90;;;12.90;99.90;;;;;;5024024;28;20222;-78
2023/06/28 04:03:49;;;;;;;9.47;3.57;;;13.00;99.90;;;;;;5023358;28;20229;-79
2023/06/28 04:06:16;;;;;;;9.83;3.27;;;13.00;99.90;;;;;;5020891;28;20706;-79
2023/06/28 04:08:46;;;;;;;10.27;3.43;;;13.10;99.90;;;;;;5044889;28;20629;-78
2023/06/28 04:11:13;;;;;;;9.57;3.63;;;13.10;99.90;;;;;;5021318;28;20788;-79
2023/06/28 04:13:41;;;;;;;7.70;3.23;;;13.20;99.90;;;;;;5025235;28;20225;-79
2023/06/28 04:16:08;;;;;;;9.63;3.57;;;13.30;99.90;;;;;;5038410;28;20327;-79
2023/06/28 04:18:34;;;;;;;7.90;3.23;;;13.40;99.90;;;;;;5042708;28;20310;-78
2023/06/28 04:21:01;;;;;;;10.93;3.30;;;13.40;99.90;;;;;;5016718;28;20235;-79
2023/06/28 04:23:28;;;;;;;9.53;3.27;;;13.50;99.90;;;;;;5018642;28;20234;-79
2023/06/28 04:25:55;;;;;;;8.13;3.13;;;13.50;99.90;;;;;;5037702;28;20227;-79
2023/06/28 04:28:22;;;;;;;7.37;3.43;;;13.60;99.90;;;;;;5041250;28;20314;-79
2023/06/28 04:30:50;;;;;;;6.67;3.00;;;13.60;99.90;;;;;;5020861;28;20230;-78
2023/06/28 04:33:18;;;;;;;8.03;3.10;;;13.70;99.90;;;;;;5039471;28;20216;-78
2023/06/28 04:35:46;;;;;;;10.00;3.13;;;13.70;99.90;;;;;;5020811;28;20288;-78
2023/06/28 04:38:13;;;;;;;10.73;3.50;;;13.70;99.90;;;;;;5041130;28;20235;-78
2023/06/28 04:40:40;;;;;;;9.83;3.40;;;13.70;99.90;;;;;;5021450;28;20228;-77
2023/06/28 04:43:10;;;;;;;7.43;2.83;;;13.70;99.90;;;;;;5015523;28;20707;-78
2023/06/28 04:45:37;;;;;;;9.47;3.67;;;13.80;99.90;;;;;;5024408;28;20256;-78
2023/06/28 04:48:06;;;;;;;7.93;3.13;;;13.80;99.90;;;;;;5020404;28;20741;-78
2023/06/28 04:50:33;;;;;;;9.03;2.73;;;13.80;99.90;;;;;;5038408;28;20802;-77
2023/06/28 04:53:00;;;;;;;5.83;2.90;;;13.80;99.90;;;;;;5036514;28;20226;-78
2023/06/28 04:55:32;;;;;;;11.63;3.27;;;13.90;99.90;;;;;;5042087;28;20749;-77
2023/06/28 04:58:01;;;;;;;9.17;3.30;;;13.90;99.90;;;;;;5042014;28;20223;-79
2023/06/28 05:00:28;;;;;;;7.80;2.90;;;13.90;99.90;;;;;;5025585;28;20229;-78
2023/06/28 05:02:56;;;;;;;7.37;3.20;;;14.00;99.90;;;;;;5036689;28;20238;-77
2023/06/28 05:05:24;;;;;;;6.33;2.90;;;14.00;99.90;;;;;;5037181;28;20286;-78
2023/06/28 05:07:52;;;;;;;5.70;2.40;;;14.10;99.90;;;;;;5034782;28;20226;-79
2023/06/28 05:10:19;;;;;;;9.33;3.40;;;14.10;99.90;;;;;;5036620;28;20260;-77
2023/06/28 05:12:46;;;;;;;8.27;3.07;;;14.20;99.90;;;;;;5020524;28;20233;-77
2023/06/28 05:15:13;;;;;;;10.07;3.00;;;14.20;99.90;;;;;;5021487;28;20253;-77
2023/06/28 05:17:40;;;;;;;11.50;3.20;;;14.30;99.90;;;;;;5036691;28;20820;-78
2023/06/28 05:20:08;;;;;;;6.40;2.30;;;14.30;99.90;;;;;;5021872;28;20221;-78
2023/06/28 05:22:41;;;;;;;9.10;2.57;;;14.40;99.90;;;;;;5025030;28;20283;-78
2023/06/28 05:25:08;;;;;;;8.83;3.10;;;14.40;99.90;;;;;;5015249;28;20230;-78
2023/06/28 05:27:34;;;;;;;7.77;2.43;;;14.50;99.90;;;;;;5017605;28;20319;-78
2023/06/28 05:30:02;;;;;;;5.47;2.53;;;14.50;99.90;;;;;;5019911;28;20245;-78
2023/06/28 05:32:28;;;;;;;5.03;2.43;;;14.60;99.90;;;;;;5038783;28;20657;-78
2023/06/28 05:34:55;;;;;;;6.70;2.70;;;14.60;99.90;;;;;;5041374;28;20283;-78
2023/06/28 05:37:22;;;;;;;9.83;2.93;;;14.60;99.90;;;;;;5024237;28;20219;-78
2023/06/28 05:39:50;;;;;;;8.77;2.57;;;14.70;99.90;;;;;;5038576;28;20308;-78
2023/06/28 05:42:17;;;;;;;7.50;3.03;;;14.70;99.90;;;;;;5022839;28;20227;-78
2023/06/28 05:44:43;;;;;;;10.27;2.80;;;14.80;99.90;;;;;;5019939;28;20261;-78
2023/06/28 05:47:10;;;;;;;7.50;2.50;;;14.80;99.90;;;;;;5038314;28;20221;-78
2023/06/28 05:49:37;;;;;;;6.23;2.30;;;14.90;99.90;;;;;;5033203;28;20253;-78
2023/06/28 05:52:05;;;;;;;6.00;2.30;;;14.90;99.90;;;;;;5021926;28;20217;-77
2023/06/28 05:54:31;;;;;;;6.33;2.30;;;15.00;99.90;;;;;;5020284;28;20243;-78
2023/06/28 05:57:00;;;;;;;7.60;2.43;;;15.10;99.90;;;;;;5068111;23;20302;-95
2023/06/28 05:59:26;;;;;;;6.70;2.20;;;15.20;99.90;;;;;;5047916;28;20214;-91
2023/06/28 06:01:53;;;;;;;8.07;2.53;;;15.20;99.90;;;;;;5059288;28;20251;-94
2023/06/28 06:04:20;;;;;;;6.47;2.23;;;15.20;99.90;;;;;;5043427;28;20231;-94
2023/06/28 06:06:47;;;;;;;8.37;2.37;;;15.30;99.90;;;;;;5051872;28;20224;-95
2023/06/28 06:09:14;;;;;;;6.80;2.20;;;15.40;99.90;;;;;;5046994;28;20219;-94
2023/06/28 06:11:41;;;;;;;9.73;2.50;;;15.50;99.90;;;;;;5056834;28;20303;-95
2023/06/28 06:14:09;;;;;;;8.67;2.30;;;15.50;99.90;;;;;;5057882;28;20219;-95
2023/06/28 06:16:36;;;;;;;12.07;2.00;;;15.70;99.90;;;;;;5062189;28;20215;-95
2023/06/28 06:19:03;;;;;;;8.77;2.27;;;15.70;99.90;;;;;;5060167;28;20355;-96
2023/06/28 06:21:30;;;;;;;12.07;2.83;;;15.70;99.90;;;;;;5059323;28;20250;-96
2023/06/28 06:24:01;;;;;;;6.90;2.20;;;15.80;99.90;;;;;;5057493;28;20211;-96
2023/06/28 06:26:29;;;;;;;9.57;2.00;;;15.90;99.90;;;;;;5066428;23;20301;-79
2023/06/28 06:28:55;;;;;;;5.70;1.73;;;16.10;99.90;;;;;;5023795;28;20427;-79
2023/06/28 06:31:23;;;;;;;5.40;2.00;;;16.20;99.90;;;;;;5025804;28;20232;-79
2023/06/28 06:33:50;;;;;;;4.97;1.80;;;16.30;99.90;;;;;;5023620;28;20921;-79
2023/06/28 06:36:17;;;;;;;6.53;2.23;;;16.50;99.90;;;;;;5015310;28;20612;-79
2023/06/28 06:38:43;;;;;;;5.47;1.70;;;16.50;99.90;;;;;;5022061;28;20221;-79
2023/06/28 06:41:10;;;;;;;8.80;2.50;;;16.60;99.90;;;;;;5019843;28;20230;-80
2023/06/28 06:43:36;;;;;;;5.97;2.10;;;16.80;99.90;;;;;;5014804;28;20315;-80
2023/06/28 06:46:03;;;;;;;7.90;1.63;;;16.80;99.90;;;;;;5018075;28;20247;-79
2023/06/28 06:48:31;;;;;;;7.00;1.77;;;17.00;99.90;;;;;;5020325;28;20303;-80
2023/06/28 06:50:58;;;;;;;5.33;2.00;;;17.10;99.90;;;;;;5022630;28;20604;-80
2023/06/28 06:53:25;;;;;;;5.37;2.00;;;17.20;99.90;;;;;;5018022;28;20216;-79
2023/06/28 06:55:51;;;;;;;7.03;2.03;;;17.40;99.90;;;;;;5022326;28;20233;-79
2023/06/28 06:58:18;;;;;;;3.70;1.83;;;17.50;99.90;;;;;;5016583;28;20232;-79
2023/06/28 07:00:46;;;;;;;5.00;1.77;;;17.70;99.90;;;;;;5018878;28;20235;-79
2023/06/28 07:03:13;;;;;;;5.93;1.90;;;17.90;99.90;;;;;;5014327;28;21160;-79
2023/06/28 07:05:41;;;;;;;6.47;2.00;;;18.00;99.90;;;;;;5021445;28;20237;-79
2023/06/28 07:08:08;;;;;;;4.13;1.80;;;18.20;99.90;;;;;;5020519;28;20224;-79
2023/06/28 07:10:35;;;;;;;5.50;1.90;;;18.20;99.90;;;;;;5018771;28;20233;-80
2023/06/28 07:13:01;;;;;;;4.03;1.45;;;18.20;99.90;;;;;;5021039;28;20549;-80
2023/06/28 07:15:28;;;;;;;5.88;1.85;;;18.40;99.90;;;;;;5019501;28;20222;-79
2023/06/28 07:17:55;;;;;;;6.00;1.70;;;18.70;99.90;;;;;;5019935;28;20476;-80
2023/06/28 07:20:22;;;;;;;5.38;1.60;;;19.00;99.90;;;;;;5018611;28;20228;-79
2023/06/28 07:22:50;;;;;;;3.72;1.42;;;19.30;99.90;;;;;;5035962;28;20224;-79
2023/06/28 07:25:17;;;;;;;3.97;1.60;;;19.70;99.90;;;;;;5016514;28;20231;-79
2023/06/28 07:27:43;;;;;;;6.65;1.50;;;20.10;99.90;;;;;;5035015;28;20229;-80
2023/06/28 07:30:11;;;;;;;4.30;1.50;;;20.60;99.90;;;;;;5016297;28;20232;-80
2023/06/28 07:32:37;;;;;;;5.75;1.67;;;21.10;99.90;;;;;;5020244;28;20707;-79
2023/06/28 07:35:04;;;;;;;2.13;1.25;;;21.60;99.90;;;;;;5017863;28;20220;-79
2023/06/28 07:37:31;;;;;;;3.88;1.20;;;22.20;99.90;;;;;;5032042;28;20225;-79
2023/06/28 07:39:59;;;;;;;3.80;1.25;;;22.70;99.90;;;;;;5037639;28;20653;-79
2023/06/28 07:42:26;;;;;;;3.22;1.25;;;23.30;99.90;;;;;;5014136;28;20712;-79
2023/06/28 07:44:53;;;;;;;4.75;1.60;;;23.90;99.70;;;;;;5021472;28;20224;-79
2023/06/28 07:47:20;;;;;;;4.72;1.75;;;24.40;99.20;;;;;;5022316;28;20530;-79
2023/06/28 07:49:46;;;;;;;3.00;1.33;;;24.90;98.40;;;;;;5032039;28;20233;-80
2023/06/28 07:52:13;;;;;;;5.75;1.67;;;25.30;97.90;;;;;;5019563;28;20316;-79
2023/06/28 07:54:40;;;;;;;4.40;1.63;;;25.70;96.90;;;;;;5027416;28;20238;-77
2023/06/28 07:57:09;;;;;;;4.72;1.55;;;25.90;95.70;;;;;;5018227;28;20230;-79
2023/06/28 07:59:35;;;;;;;4.57;1.70;;;26.00;94.70;;;;;;5020392;28;20283;-79
2023/06/28 08:02:02;;;;;;;3.97;1.30;;;26.00;94.60;;;;;;5018749;28;20230;-78
2023/06/28 08:04:29;;;;;;;4.50;1.58;;;25.70;94.10;;;;;;5016403;28;20244;-79
2023/06/28 08:06:55;;;;;;;5.60;1.80;;;25.40;93.80;;;;;;5042206;28;20235;-79
2023/06/28 08:09:22;;;;;;;6.82;2.47;;;25.00;93.70;;;;;;5022926;28;20217;-78
2023/06/28 08:11:49;;;;;;;4.22;1.77;;;24.60;94.00;;;;;;5020232;28;20780;-79
2023/06/28 08:14:17;;;;;;;2.88;1.25;;;24.20;94.80;;;;;;5021793;28;20228;-78
2023/06/28 08:16:45;;;;;;;5.22;1.60;;;24.00;95.20;;;;;;5041499;28;20233;-79
2023/06/28 08:19:13;;;;;;;2.42;1.33;;;24.00;95.50;;;;;;5022323;28;20936;-79
2023/06/28 08:21:39;;;;;;;6.53;1.42;;;24.10;95.50;;;;;;5025673;28;20229;-78
2023/06/28 08:24:07;;;;;;;5.88;1.63;;;24.30;95.40;;;;;;5022648;28;20311;-77
2023/06/28 08:26:35;;;;;;;3.95;1.60;;;24.50;95.20;;;;;;5018546;28;21024;-77
2023/06/28 08:29:02;;;;;;;5.72;1.52;;;24.70;95.30;;;;;;5025935;28;20225;-80
2023/06/28 08:31:30;;;;;;;5.30;1.90;;;25.00;94.50;;;;;;5028407;28;20826;-79
2023/06/28 08:33:57;;;;;;;4.40;1.35;;;25.30;93.60;;;;;;5018984;28;20257;-78
2023/06/28 08:36:24;;;;;;;5.47;1.48;;;25.60;93.50;;;;;;5020294;28;20237;-78
2023/06/28 08:38:50;;;;;;;3.05;1.38;;;25.80;92.90;;;;;;5025916;28;20312;-79
2023/06/28 08:41:18;;;;;;;5.47;1.58;;;26.10;93.20;;;;;;5022689;28;20879;-80
2023/06/28 08:43:48;;;;;;;4.38;1.20;;;26.40;92.90;;;;;;5025948;28;20231;-79
2023/06/28 08:46:15;;;;;;;3.13;1.25;;;26.90;92.30;;;;;;5024824;28;20771;-79
2023/06/28 08:48:45;;;;;;;3.78;1.48;;;27.40;92.50;;;;;;5023306;28;20319;-80
2023/06/28 08:51:12;;;;;;;4.28;1.58;;;27.80;90.80;;;;;;5021668;28;20221;-77
2023/06/28 08:53:44;;;;;;;7.28;1.50;;;28.40;90.20;;;;;;5038624;28;20213;-83
2023/06/28 08:56:11;;;;;;;2.92;1.50;;;28.70;87.60;;;;;;5027399;28;20224;-83
2023/06/28 08:58:41;;;;;;;4.30;1.58;;;28.80;85.30;;;;;;5020925;28;20221;-81
2023/06/28 09:01:08;;;;;;;4.13;1.50;;;28.70;83.80;;;;;;5022246;28;20227;-82
2023/06/28 09:03:41;;;;;;;3.25;1.60;;;28.40;83.90;;;;;;5027513;28;20225;-85
2023/06/28 09:06:09;;;;;;;4.88;1.50;;;28.00;83.30;;;;;;5026858;28;20894;-85
2023/06/28 09:08:36;;;;;;;4.93;1.40;;;27.90;84.30;;;;;;5026030;28;20220;-86
2023/06/28 09:11:03;;;;;;;4.05;1.50;;;27.90;85.30;;;;;;5025792;28;20315;-83
2023/06/28 09:13:31;;;;;;;6.10;1.73;;;27.90;84.50;;;;;;5021342;28;20833;-81
2023/06/28 09:15:58;;;;;;;4.43;1.70;;;27.90;84.80;;;;;;5027851;28;20241;-84
2023/06/28 09:18:24;;;;;;;2.67;1.40;;;28.00;83.90;;;;;;5020691;28;20308;-86
2023/06/28 09:20:52;;;;;;;2.75;1.30;;;28.20;82.70;;;;;;5024528;28;20232;-80
2023/06/28 09:23:28;;;;;;;3.15;1.55;;;28.20;81.50;;;;;;5018896;28;20224;-80
2023/06/28 09:25:55;;;;;;;2.95;1.40;;;28.30;80.30;;;;;;5026101;28;20220;-82
2023/06/28 09:28:23;;;;;;;4.05;1.52;;;28.40;80.70;;;;;;5020423;28;20691;-83
2023/06/28 09:30:53;;;;;;;8.02;1.75;;;28.50;81.30;;;;;;5022852;28;20229;-84
2023/06/28 09:33:21;;;;;;;3.47;1.40;;;28.70;81.80;;;;;;5024430;28;20224;-81
2023/06/28 09:35:47;;;;;;;2.33;1.10;;;28.90;80.50;;;;;;5042609;28;20327;-86
2023/06/28 09:38:14;;;;;;;3.28;1.40;;;29.10;78.60;;;;;;5026224;28;20231;-78
2023/06/28 09:40:42;;;;;;;4.50;1.50;;;29.30;77.10;;;;;;5020549;28;20232;-81
2023/06/28 09:43:15;;;;;;;2.90;1.30;;;29.70;75.60;;;;;;5018990;28;20308;-81
2023/06/28 09:45:41;;;;;;;5.28;1.60;;;30.00;74.80;;;;;;5026249;28;20714;-81
2023/06/28 09:48:08;;;;;;;2.90;1.42;;;30.20;73.60;;;;;;5022803;28;20308;-81
2023/06/28 09:50:37;;;;;;;3.20;1.58;;;30.30;73.10;;;;;;5022723;28;20314;-81
2023/06/28 09:53:06;;;;;;;2.92;1.60;;;30.50;72.50;;;;;;5016014;28;20213;-81
2023/06/28 09:55:33;;;;;;;3.97;1.20;;;30.40;71.90;;;;;;5023893;28;20239;-81
2023/06/28 09:58:02;;;;;;;2.67;1.45;;;30.30;71.70;;;;;;5018679;28;20244;-81
2023/06/28 10:00:30;;;;;;;4.78;1.63;;;30.10;71.00;;;;;;5024006;28;20221;-81
2023/06/28 10:02:59;;;;;;;4.03;1.60;;;29.90;71.30;;;;;;5018766;28;20229;-80
2023/06/28 10:05:26;;;;;;;4.47;1.75;;;29.80;71.00;;;;;;5036956;28;20232;-81
2023/06/28 10:07:53;;;;;;;5.05;1.80;;;29.60;70.40;;;;;;5024225;28;20231;-81
2023/06/28 10:10:20;;;;;;;7.22;1.70;;;29.70;71.40;;;;;;5022747;28;20216;-81
2023/06/28 10:12:49;;;;;;;4.28;1.38;;;29.80;70.30;;;;;;5019580;28;20228;-81
2023/06/28 10:15:24;;;;;;;3.80;1.80;;;30.10;70.90;;;;;;5019518;28;20232;-81
2023/06/28 10:17:51;;;;;;;5.60;1.77;;;30.40;69.80;;;;;;5013646;28;20753;-81
2023/06/28 10:20:18;;;;;;;3.22;1.58;;;30.70;70.50;;;;;;5016546;28;20722;-81
2023/06/28 10:22:46;;;;;;;5.60;1.80;;;30.80;69.20;;;;;;5018120;28;20738;-81
2023/06/28 10:25:13;;;;;;;3.22;1.85;;;30.80;68.10;;;;;;5020049;28;20308;-81
2023/06/28 10:27:40;;;;;;;6.82;1.95;;;30.60;67.50;;;;;;5020207;28;20847;-81
2023/06/28 10:30:08;;;;;;;5.45;1.90;;;30.30;68.20;;;;;;5021709;28;20775;-81
2023/06/28 10:32:38;;;;;;;3.65;1.67;;;29.90;68.10;;;;;;5015068;28;20229;-81
2023/06/28 10:35:07;;;;;;;7.35;2.38;;;29.50;68.50;;;;;;5015076;28;20218;-81
2023/06/28 10:37:34;;;;;;;4.28;1.67;;;29.10;68.70;;;;;;5019539;28;20310;-81
2023/06/28 10:40:01;;;;;;;3.70;1.48;;;28.60;69.20;;;;;;5035478;28;20222;-81
2023/06/28 10:42:38;;;;;;;5.90;1.90;;;28.20;70.20;;;;;;5022195;28;20246;-81
2023/06/28 10:45:06;;;;;;;4.18;1.80;;;27.70;69.40;;;;;;5032060;28;20597;-81
2023/06/28 10:47:34;;;;;;;4.38;1.73;;;27.30;70.10;;;;;;5019705;28;20286;-80
2023/06/28 10:50:07;;;;;;;4.38;1.80;;;26.80;71.10;;;;;;5021911;28;20228;-80
2023/06/28 10:52:34;;;;;;;3.50;1.40;;;26.50;73.00;;;;;;5022563;28;20256;-81
2023/06/28 10:55:02;;;;;;;4.68;1.85;;;26.30;74.10;;;;;;5038179;28;20225;-80
2023/06/28 10:57:37;;;;;;;5.40;2.20;;;26.30;75.30;;;;;;5020238;28;20241;-81
2023/06/28 11:00:09;;;;;;;5.28;1.92;;;26.30;74.80;;;;;;5012641;28;20742;-81
2023/06/28 11:02:55;;;;;;;4.00;1.63;;;26.60;75.90;;;;;;5020859;28;20232;-81
2023/06/28 11:05:56;;;;;;;3.72;1.70;;;26.90;77.30;;;;;;5030841;28;20263;-81
2023/06/28 11:08:37;;;;;;;4.35;1.52;;;27.40;75.80;;;;;;5021564;28;20212;-81
2023/06/28 11:11:03;;;;;;;4.90;1.80;;;28.00;75.20;;;;;;5021548;28;21075;-79
2023/06/28 11:13:44;;;;;;;4.13;1.42;;;28.40;73.60;;;;;;5019313;28;20749;-81
2023/06/28 11:16:13;;;;;;;3.40;1.38;;;28.60;71.70;;;;;;5017500;28;20221;-80
2023/06/28 11:18:40;;;;;;;3.47;1.38;;;28.70;70.70;;;;;;5019997;28;20229;-80
2023/06/28 11:21:15;;;;;;;5.05;2.03;;;28.80;69.70;;;;;;5021453;28;20962;-81
2023/06/28 11:23:43;;;;;;;2.67;1.48;;;28.90;69.80;;;;;;5019487;28;20304;-80
2023/06/28 11:26:13;;;;;;;3.28;1.58;;;29.00;69.70;;;;;;5022274;28;20545;-80
2023/06/28 11:28:49;;;;;;;3.70;1.50;;;29.10;68.90;;;;;;5021614;28;20264;-81
2023/06/28 11:31:19;;;;;;;2.53;1.60;;;29.10;67.60;;;;;;5036573;28;20217;-81
2023/06/28 11:33:46;;;;;;;4.13;1.60;;;29.00;67.20;;;;;;5022651;28;20221;-81
2023/06/28 11:36:14;;;;;;;2.58;1.40;;;28.70;66.70;;;;;;5026646;28;20851;-80
2023/06/28 11:38:44;;;;;;;5.75;1.60;;;28.50;66.90;;;;;;5023329;28;20273;-80
2023/06/28 11:41:14;;;;;;;3.88;1.55;;;28.30;66.90;;;;;;5020688;28;20702;-80
2023/06/28 11:43:41;;;;;;;3.88;1.60;;;28.30;66.80;;;;;;5027353;28;20255;-80
2023/06/28 11:46:08;;;;;;;4.18;1.30;;;28.40;67.60;;;;;;5024197;28;20216;-80
2023/06/28 11:48:34;;;;;;;3.22;1.63;;;28.70;67.90;;;;;;5025289;28;20737;-79
2023/06/28 11:51:04;;;;;;;2.78;1.40;;;29.00;66.90;;;;;;5030142;28;20256;-79
2023/06/28 11:53:33;;;;;;;3.78;1.55;;;29.30;66.60;;;;;;5027953;28;20324;-79
2023/06/28 11:55:59;;;;;;;4.28;1.40;;;29.70;63.60;;;;;;5024037;28;20742;-79
2023/06/28 12:01:06;;;;;;;2.55;1.05;;;30.30;61.30;;;;;;4967420;28;20727;-77
2023/06/28 12:03:34;;;;;;;3.00;1.20;;;30.40;61.70;;;;;;4967237;28;20257;-77
2023/06/28 12:06:03;;;;;;;2.28;1.35;;;30.50;60.50;;;;;;4966496;28;20535;-77
2023/06/28 12:08:35;;;;;;;2.60;1.23;;;30.60;61.40;;;;;;4963276;28;20223;-77
2023/06/28 12:11:08;;;;;;;3.05;1.27;;;30.60;59.20;;;;;;4977726;28;20224;-77
2023/06/28 12:13:35;;;;;;;3.67;1.38;;;30.70;60.40;;;;;;4988501;28;20233;-77
2023/06/28 12:16:11;;;;;;;2.92;1.27;;;30.70;59.50;;;;;;4986564;28;20517;-77
2023/06/28 12:18:56;;;;;;;3.97;1.40;;;30.80;59.20;;;;;;4987546;28;20233;-77
2023/06/28 12:21:23;;;;;;;2.70;1.40;;;30.90;59.60;;;;;;4986737;28;20229;-77
2023/06/28 12:23:52;;;;;;;2.40;1.30;;;31.00;59.60;;;;;;5002860;28;20219;-77
2023/06/28 12:26:22;;;;;;;5.05;1.50;;;31.20;58.80;;;;;;4983628;28;20234;-77
2023/06/28 12:28:50;;;;;;;1.85;1.15;;;31.30;57.70;;;;;;4979160;28;20272;-77
2023/06/28 12:31:17;;;;;;;2.78;1.40;;;31.40;57.20;;;;;;4991824;28;20759;-77
2023/06/28 12:33:44;;;;;;;1.25;0.98;;;31.40;57.50;;;;;;4988125;28;20827;-77
2023/06/28 12:36:14;;;;;;;2.70;1.38;;;31.50;58.60;;;;;;4982781;28;20218;-77
2023/06/28 12:38:45;;;;;;;3.33;1.38;;;31.50;56.90;;;;;;4988578;28;20226;-77
2023/06/28 12:41:15;;;;;;;2.25;1.55;;;31.70;56.70;;;;;;4992690;28;20314;-77
2023/06/28 12:43:42;;;;;;;2.58;1.27;;;31.70;55.50;;;;;;4987291;28;20329;-77
2023/06/28 12:46:11;;;;;;;2.08;1.17;;;31.80;55.40;;;;;;4987414;28;20232;-77
2023/06/28 12:48:38;;;;;;;3.65;1.30;;;31.80;53.50;;;;;;4984413;28;20229;-77
2023/06/28 12:51:05;;;;;;;2.83;1.45;;;31.80;53.90;;;;;;4988516;28;20225;-78
2023/06/28 12:53:32;;;;;;;2.90;1.75;;;31.90;53.60;;;;;;4981999;28;20316;-77